Highland, Illinois
Current Conditions -  °F | °C
As of 11:33 PM on Saturday 25 Oct 2014 (Local Time) from KBLV Reporting Station
Haze Haze  
Wind Chill: 54°   Ceiling: Unl
Heat Index: 54°   Visibility: 3mi
Dew Point: 54°   Wind: 1mph
Humidity: 100%   Direction: 230°SW
Pressure: 30.01"   Gusts: NA
Location:  38.74°N, 89.68°W
Report Text: KBLV 260433Z AUTO 23001KT 3SM R32R/4500FT BR CLR 12/12 A3001 RMK AO2 $
Loading
Personal Weather Stations






























Interactive Weather Map
Tropical Storm Tracking
New forecast layout! Learn more

10-Day Weather Forecast

Advertisements
Track Severe Weather on mobile